アルジェ の空港の天気 - METARとTAF

ウアリ・ブーメディアン空港 ( DAAG / ALG ) - アルジェリア アルジェ
飛行場実況気象(Metar)
観測時間08/11 07:00 CET (08/11 06:00 UTC)
風向・風速静穏 0m/s
視程10km以上
天気現象
なし
気温20℃
湿度78%
気圧1011hPa
METARDAAG 110600Z 00000KT CAVOK 20/16 Q1011
過去の天気等 Google飛行場航空写真 Wunderground天気予報

過去48時間のMETAR

飛行場予報(TAF)
発表時間: 8/11 06:00 CET (8/11 05:00 UTC)
予報対象時間: 11日7時 CET ~ 12日7時 CET
風向・風速南 3m/s
視程10km以上
なし
11日9時 CET ~ 11日12時 CET に徐々に
風向・風速北東 6m/s
11日17時 CET ~ 11日19時 CET に徐々に
風向・風速不定 1m/s
TAF DAAG 110500Z 1106/1206 18006KT CAVOK
BECMG 1108/1111 04012KT
BECMG 1116/1118 VRB02KT